sensor_id;sensor_type;location;lat;lon;timestamp;pressure;altitude;pressure_sealevel;temperature;humidity
6204;BME280;3135;42.602;23.468;2023-07-29T00:01:30;92658.53;;;18.84;76.00
6204;BME280;3135;42.602;23.468;2023-07-29T00:03:56;92670.16;;;18.85;76.00
6204;BME280;3135;42.602;23.468;2023-07-29T00:06:21;92651.31;;;18.88;77.80
6204;BME280;3135;42.602;23.468;2023-07-29T00:08:46;92649.94;;;18.95;77.26
6204;BME280;3135;42.602;23.468;2023-07-29T00:11:12;92653.78;;;18.94;76.86
6204;BME280;3135;42.602;23.468;2023-07-29T00:13:37;92657.25;;;18.94;76.37
6204;BME280;3135;42.602;23.468;2023-07-29T00:16:03;92656.06;;;18.92;74.85
6204;BME280;3135;42.602;23.468;2023-07-29T00:18:28;92666.91;;;18.79;76.18
6204;BME280;3135;42.602;23.468;2023-07-29T00:20:53;92680.41;;;18.92;77.65
6204;BME280;3135;42.602;23.468;2023-07-29T00:23:19;92666.13;;;18.79;77.80
6204;BME280;3135;42.602;23.468;2023-07-29T00:25:45;92671.88;;;18.77;77.50
6204;BME280;3135;42.602;23.468;2023-07-29T00:28:12;92661.97;;;18.69;78.46
6204;BME280;3135;42.602;23.468;2023-07-29T00:30:37;92654.75;;;18.61;78.25
6204;BME280;3135;42.602;23.468;2023-07-29T00:33:02;92642.53;;;18.67;80.18
6204;BME280;3135;42.602;23.468;2023-07-29T00:35:28;92665.78;;;18.68;79.59
6204;BME280;3135;42.602;23.468;2023-07-29T00:37:53;92668.97;;;18.70;78.50
6204;BME280;3135;42.602;23.468;2023-07-29T00:40:20;92668.59;;;18.72;78.69
6204;BME280;3135;42.602;23.468;2023-07-29T00:42:46;92662.97;;;18.64;79.21
6204;BME280;3135;42.602;23.468;2023-07-29T00:45:12;92659.16;;;18.53;78.91
6204;BME280;3135;42.602;23.468;2023-07-29T00:47:37;92662.88;;;18.49;78.77
6204;BME280;3135;42.602;23.468;2023-07-29T00:50:03;92649.63;;;18.31;78.90
6204;BME280;3135;42.602;23.468;2023-07-29T00:52:29;92649.75;;;18.35;79.30
6204;BME280;3135;42.602;23.468;2023-07-29T00:54:55;92649.38;;;18.36;79.10
6204;BME280;3135;42.602;23.468;2023-07-29T00:57:21;92647.03;;;18.23;79.44
6204;BME280;3135;42.602;23.468;2023-07-29T00:59:46;92638.50;;;18.08;80.64
6204;BME280;3135;42.602;23.468;2023-07-29T01:02:12;92639.94;;;18.06;81.13
6204;BME280;3135;42.602;23.468;2023-07-29T01:04:38;92635.91;;;18.12;81.08
6204;BME280;3135;42.602;23.468;2023-07-29T01:09:46;92654.94;;;18.03;81.13
6204;BME280;3135;42.602;23.468;2023-07-29T01:12:22;92637.47;;;17.76;81.83
6204;BME280;3135;42.602;23.468;2023-07-29T01:17:42;92629.09;;;17.57;83.75
6204;BME280;3135;42.602;23.468;2023-07-29T01:20:19;92648.69;;;17.66;83.88
6204;BME280;3135;42.602;23.468;2023-07-29T01:22:46;92637.63;;;17.59;83.96
6204;BME280;3135;42.602;23.468;2023-07-29T01:25:13;92645.66;;;17.55;83.65
6204;BME280;3135;42.602;23.468;2023-07-29T01:27:39;92645.09;;;17.62;83.33
6204;BME280;3135;42.602;23.468;2023-07-29T01:30:05;92657.72;;;17.70;82.72
6204;BME280;3135;42.602;23.468;2023-07-29T01:35:35;92654.47;;;17.77;82.63
6204;BME280;3135;42.602;23.468;2023-07-29T01:38:09;92647.91;;;17.66;82.37
6204;BME280;3135;42.602;23.468;2023-07-29T01:40:39;92644.19;;;17.70;83.01
6204;BME280;3135;42.602;23.468;2023-07-29T01:43:05;92645.13;;;17.74;84.01
6204;BME280;3135;42.602;23.468;2023-07-29T01:45:33;92656.63;;;17.83;83.38
6204;BME280;3135;42.602;23.468;2023-07-29T01:48:04;92645.53;;;17.64;82.80
6204;BME280;3135;42.602;23.468;2023-07-29T01:50:29;92647.63;;;17.79;83.86
6204;BME280;3135;42.602;23.468;2023-07-29T01:56:04;92649.53;;;17.79;83.09
6204;BME280;3135;42.602;23.468;2023-07-29T01:58:30;92645.78;;;17.71;82.21
6204;BME280;3135;42.602;23.468;2023-07-29T02:00:55;92650.31;;;17.79;82.39
6204;BME280;3135;42.602;23.468;2023-07-29T02:03:20;92644.34;;;17.74;81.99
6204;BME280;3135;42.602;23.468;2023-07-29T02:05:46;92641.34;;;17.54;82.55
6204;BME280;3135;42.602;23.468;2023-07-29T02:08:11;92650.06;;;17.60;83.17
6204;BME280;3135;42.602;23.468;2023-07-29T02:10:37;92651.94;;;17.59;83.33
6204;BME280;3135;42.602;23.468;2023-07-29T02:13:03;92657.34;;;17.59;83.57
6204;BME280;3135;42.602;23.468;2023-07-29T02:15:28;92647.09;;;17.53;82.76
6204;BME280;3135;42.602;23.468;2023-07-29T02:17:54;92645.19;;;17.41;83.45
6204;BME280;3135;42.602;23.468;2023-07-29T02:20:20;92663.09;;;17.46;84.04
6204;BME280;3135;42.602;23.468;2023-07-29T02:22:45;92662.19;;;17.42;84.30
6204;BME280;3135;42.602;23.468;2023-07-29T02:25:11;92659.69;;;17.36;84.88
6204;BME280;3135;42.602;23.468;2023-07-29T02:27:37;92649.41;;;17.30;84.91
6204;BME280;3135;42.602;23.468;2023-07-29T02:30:02;92642.00;;;17.27;84.91
6204;BME280;3135;42.602;23.468;2023-07-29T02:32:28;92642.50;;;17.08;84.85
6204;BME280;3135;42.602;23.468;2023-07-29T02:34:54;92657.88;;;17.28;86.22
6204;BME280;3135;42.602;23.468;2023-07-29T02:37:19;92648.28;;;17.19;85.10
6204;BME280;3135;42.602;23.468;2023-07-29T02:39:45;92654.69;;;17.26;84.87
6204;BME280;3135;42.602;23.468;2023-07-29T02:42:11;92658.53;;;17.25;85.17
6204;BME280;3135;42.602;23.468;2023-07-29T02:44:37;92650.84;;;17.15;85.36
6204;BME280;3135;42.602;23.468;2023-07-29T02:47:02;92649.06;;;17.19;85.97
6204;BME280;3135;42.602;23.468;2023-07-29T02:49:28;92628.31;;;16.99;85.81
6204;BME280;3135;42.602;23.468;2023-07-29T02:51:53;92646.53;;;17.02;85.85
6204;BME280;3135;42.602;23.468;2023-07-29T02:54:18;92641.88;;;16.90;86.03
6204;BME280;3135;42.602;23.468;2023-07-29T02:56:44;92643.78;;;16.90;85.82
6204;BME280;3135;42.602;23.468;2023-07-29T02:59:09;92649.47;;;17.09;86.20
6204;BME280;3135;42.602;23.468;2023-07-29T03:01:35;92632.00;;;16.94;85.56
6204;BME280;3135;42.602;23.468;2023-07-29T03:04:00;92642.81;;;16.94;85.35
6204;BME280;3135;42.602;23.468;2023-07-29T03:06:26;92641.34;;;16.97;85.30
6204;BME280;3135;42.602;23.468;2023-07-29T03:08:51;92665.91;;;17.04;85.14
6204;BME280;3135;42.602;23.468;2023-07-29T03:11:17;92661.28;;;17.04;85.08
6204;BME280;3135;42.602;23.468;2023-07-29T03:13:43;92667.84;;;17.16;85.45
6204;BME280;3135;42.602;23.468;2023-07-29T03:16:10;92667.13;;;17.06;85.55
6204;BME280;3135;42.602;23.468;2023-07-29T03:18:36;92661.16;;;17.01;85.83
6204;BME280;3135;42.602;23.468;2023-07-29T03:21:02;92665.56;;;17.05;86.34
6204;BME280;3135;42.602;23.468;2023-07-29T03:23:29;92677.63;;;17.20;88.45
6204;BME280;3135;42.602;23.468;2023-07-29T03:25:55;92669.88;;;17.19;87.67
6204;BME280;3135;42.602;23.468;2023-07-29T03:28:24;92674.69;;;17.13;91.43
6204;BME280;3135;42.602;23.468;2023-07-29T03:30:50;92676.34;;;17.05;89.72
6204;BME280;3135;42.602;23.468;2023-07-29T03:33:15;92658.25;;;17.06;91.16
6204;BME280;3135;42.602;23.468;2023-07-29T03:35:41;92674.09;;;17.07;91.74
6204;BME280;3135;42.602;23.468;2023-07-29T03:38:09;92667.25;;;17.10;92.27
6204;BME280;3135;42.602;23.468;2023-07-29T03:40:35;92661.84;;;17.10;93.24
6204;BME280;3135;42.602;23.468;2023-07-29T03:43:00;92655.91;;;17.17;92.50
6204;BME280;3135;42.602;23.468;2023-07-29T03:45:26;92669.31;;;17.25;92.33
6204;BME280;3135;42.602;23.468;2023-07-29T03:47:51;92666.50;;;17.22;92.55
6204;BME280;3135;42.602;23.468;2023-07-29T03:50:16;92672.03;;;17.25;91.95
6204;BME280;3135;42.602;23.468;2023-07-29T03:52:42;92667.03;;;17.15;92.40
6204;BME280;3135;42.602;23.468;2023-07-29T03:55:08;92666.31;;;17.27;92.73
6204;BME280;3135;42.602;23.468;2023-07-29T03:57:33;92675.78;;;17.33;93.96
6204;BME280;3135;42.602;23.468;2023-07-29T03:59:58;92659.91;;;17.44;93.40
6204;BME280;3135;42.602;23.468;2023-07-29T04:02:24;92664.88;;;17.42;92.71
6204;BME280;3135;42.602;23.468;2023-07-29T04:04:49;92667.38;;;17.47;91.78
6204;BME280;3135;42.602;23.468;2023-07-29T04:07:15;92671.97;;;17.58;91.80
6204;BME280;3135;42.602;23.468;2023-07-29T04:09:40;92670.84;;;17.59;92.17
6204;BME280;3135;42.602;23.468;2023-07-29T04:12:06;92675.84;;;17.70;91.63
6204;BME280;3135;42.602;23.468;2023-07-29T04:14:31;92680.50;;;17.81;93.69
6204;BME280;3135;42.602;23.468;2023-07-29T04:16:57;92674.09;;;17.74;93.67
6204;BME280;3135;42.602;23.468;2023-07-29T04:19:22;92663.66;;;17.63;91.74
6204;BME280;3135;42.602;23.468;2023-07-29T04:21:48;92681.28;;;17.82;97.09
6204;BME280;3135;42.602;23.468;2023-07-29T04:24:16;92677.22;;;17.76;92.65
6204;BME280;3135;42.602;23.468;2023-07-29T04:26:41;92670.56;;;17.73;92.62
6204;BME280;3135;42.602;23.468;2023-07-29T04:29:07;92677.25;;;17.88;91.70
6204;BME280;3135;42.602;23.468;2023-07-29T04:31:32;92670.38;;;17.91;93.94
6204;BME280;3135;42.602;23.468;2023-07-29T04:33:57;92668.78;;;18.02;94.92
6204;BME280;3135;42.602;23.468;2023-07-29T04:36:23;92682.88;;;18.07;93.83
6204;BME280;3135;42.602;23.468;2023-07-29T04:38:48;92677.13;;;17.97;91.89
6204;BME280;3135;42.602;23.468;2023-07-29T04:41:13;92681.88;;;18.12;91.87
6204;BME280;3135;42.602;23.468;2023-07-29T04:43:39;92668.56;;;18.31;91.67
6204;BME280;3135;42.602;23.468;2023-07-29T04:46:08;92661.25;;;18.07;92.53
6204;BME280;3135;42.602;23.468;2023-07-29T04:48:36;92664.19;;;17.90;93.03
6204;BME280;3135;42.602;23.468;2023-07-29T04:51:01;92689.53;;;17.98;92.65
6204;BME280;3135;42.602;23.468;2023-07-29T04:53:26;92684.44;;;18.33;92.60
6204;BME280;3135;42.602;23.468;2023-07-29T04:55:52;92691.88;;;18.36;89.59
6204;BME280;3135;42.602;23.468;2023-07-29T04:58:17;92697.19;;;18.45;93.80
6204;BME280;3135;42.602;23.468;2023-07-29T05:00:43;92678.19;;;18.57;92.02
6204;BME280;3135;42.602;23.468;2023-07-29T05:03:08;92695.44;;;18.77;90.70
6204;BME280;3135;42.602;23.468;2023-07-29T05:05:33;92694.66;;;18.64;91.11
6204;BME280;3135;42.602;23.468;2023-07-29T05:07:59;92688.69;;;18.71;92.61
6204;BME280;3135;42.602;23.468;2023-07-29T05:10:24;92696.47;;;18.72;88.49
6204;BME280;3135;42.602;23.468;2023-07-29T05:12:50;92695.81;;;18.51;91.51
6204;BME280;3135;42.602;23.468;2023-07-29T05:15:15;92696.94;;;18.50;91.13
6204;BME280;3135;42.602;23.468;2023-07-29T05:17:41;92704.81;;;18.79;91.70
6204;BME280;3135;42.602;23.468;2023-07-29T05:20:06;92693.97;;;18.67;92.83
6204;BME280;3135;42.602;23.468;2023-07-29T05:22:32;92705.41;;;18.73;93.20
6204;BME280;3135;42.602;23.468;2023-07-29T05:24:57;92699.25;;;18.88;92.50
6204;BME280;3135;42.602;23.468;2023-07-29T05:27:23;92711.31;;;18.90;92.42
6204;BME280;3135;42.602;23.468;2023-07-29T05:29:48;92707.00;;;19.02;91.25
6204;BME280;3135;42.602;23.468;2023-07-29T05:32:14;92705.28;;;19.09;93.15
6204;BME280;3135;42.602;23.468;2023-07-29T05:34:39;92702.25;;;19.11;92.66
6204;BME280;3135;42.602;23.468;2023-07-29T05:37:04;92711.19;;;19.27;90.74
6204;BME280;3135;42.602;23.468;2023-07-29T05:39:31;92714.94;;;19.51;89.81
6204;BME280;3135;42.602;23.468;2023-07-29T05:41:57;92718.56;;;19.71;90.18
6204;BME280;3135;42.602;23.468;2023-07-29T05:44:23;92723.66;;;19.72;92.22
6204;BME280;3135;42.602;23.468;2023-07-29T05:46:48;92719.56;;;19.94;87.80
6204;BME280;3135;42.602;23.468;2023-07-29T05:49:13;92728.78;;;20.21;86.80
6204;BME280;3135;42.602;23.468;2023-07-29T05:51:39;92732.97;;;20.66;85.22
6204;BME280;3135;42.602;23.468;2023-07-29T05:54:04;92726.66;;;20.62;85.97
6204;BME280;3135;42.602;23.468;2023-07-29T05:56:29;92737.56;;;20.81;85.37
6204;BME280;3135;42.602;23.468;2023-07-29T05:58:56;92728.09;;;21.10;85.14
6204;BME280;3135;42.602;23.468;2023-07-29T06:01:22;92723.94;;;21.32;82.63
6204;BME280;3135;42.602;23.468;2023-07-29T06:03:48;92729.72;;;21.69;80.25
6204;BME280;3135;42.602;23.468;2023-07-29T06:06:13;92731.66;;;21.69;81.03
6204;BME280;3135;42.602;23.468;2023-07-29T06:08:39;92725.38;;;22.11;78.29
6204;BME280;3135;42.602;23.468;2023-07-29T06:11:04;92729.13;;;22.22;78.59
6204;BME280;3135;42.602;23.468;2023-07-29T06:13:32;92749.78;;;22.73;75.62
6204;BME280;3135;42.602;23.468;2023-07-29T06:15:58;92722.16;;;22.74;76.41
6204;BME280;3135;42.602;23.468;2023-07-29T06:18:24;92720.28;;;22.78;74.18
6204;BME280;3135;42.602;23.468;2023-07-29T06:20:49;92715.25;;;23.07;74.57
6204;BME280;3135;42.602;23.468;2023-07-29T06:23:15;92734.97;;;23.27;73.89
6204;BME280;3135;42.602;23.468;2023-07-29T06:25:40;92728.13;;;23.40;71.98
6204;BME280;3135;42.602;23.468;2023-07-29T06:28:06;92734.34;;;23.67;71.16
6204;BME280;3135;42.602;23.468;2023-07-29T06:30:31;92725.00;;;23.68;70.50
6204;BME280;3135;42.602;23.468;2023-07-29T06:32:57;92716.13;;;23.44;72.01
6204;BME280;3135;42.602;23.468;2023-07-29T06:35:22;92722.75;;;23.43;71.83
6204;BME280;3135;42.602;23.468;2023-07-29T06:37:48;92723.59;;;23.81;71.21
6204;BME280;3135;42.602;23.468;2023-07-29T06:40:14;92731.31;;;24.13;70.13
6204;BME280;3135;42.602;23.468;2023-07-29T06:42:40;92729.38;;;24.17;68.18
6204;BME280;3135;42.602;23.468;2023-07-29T06:45:06;92708.19;;;23.66;70.91
6204;BME280;3135;42.602;23.468;2023-07-29T06:47:32;92722.72;;;24.11;69.67
6204;BME280;3135;42.602;23.468;2023-07-29T06:49:57;92701.81;;;24.29;68.18
6204;BME280;3135;42.602;23.468;2023-07-29T06:52:22;92709.63;;;24.31;68.16
6204;BME280;3135;42.602;23.468;2023-07-29T06:54:48;92705.28;;;24.70;66.53
6204;BME280;3135;42.602;23.468;2023-07-29T06:57:13;92702.34;;;24.45;65.45
6204;BME280;3135;42.602;23.468;2023-07-29T06:59:39;92707.63;;;24.28;69.70
6204;BME280;3135;42.602;23.468;2023-07-29T07:02:06;92701.59;;;24.48;67.18
6204;BME280;3135;42.602;23.468;2023-07-29T07:04:31;92700.66;;;24.78;66.54
6204;BME280;3135;42.602;23.468;2023-07-29T07:06:57;92710.94;;;25.03;67.71
6204;BME280;3135;42.602;23.468;2023-07-29T07:09:22;92697.44;;;25.31;66.65
6204;BME280;3135;42.602;23.468;2023-07-29T07:11:47;92711.03;;;25.10;64.16
6204;BME280;3135;42.602;23.468;2023-07-29T07:14:13;92710.59;;;25.04;66.07
6204;BME280;3135;42.602;23.468;2023-07-29T07:16:38;92719.78;;;25.37;64.17
6204;BME280;3135;42.602;23.468;2023-07-29T07:19:04;92719.00;;;25.43;65.83
6204;BME280;3135;42.602;23.468;2023-07-29T07:21:30;92722.72;;;25.90;63.96
6204;BME280;3135;42.602;23.468;2023-07-29T07:23:55;92721.41;;;25.52;63.42
6204;BME280;3135;42.602;23.468;2023-07-29T07:26:21;92719.13;;;25.65;63.66
6204;BME280;3135;42.602;23.468;2023-07-29T07:28:46;92712.84;;;25.68;63.61
6204;BME280;3135;42.602;23.468;2023-07-29T07:31:12;92728.63;;;26.10;61.75
6204;BME280;3135;42.602;23.468;2023-07-29T07:33:37;92723.66;;;26.52;59.03
6204;BME280;3135;42.602;23.468;2023-07-29T07:36:03;92704.38;;;25.98;60.96
6204;BME280;3135;42.602;23.468;2023-07-29T07:38:28;92711.50;;;26.60;59.01
6204;BME280;3135;42.602;23.468;2023-07-29T07:40:54;92706.00;;;26.81;58.86
6204;BME280;3135;42.602;23.468;2023-07-29T07:43:21;92724.41;;;26.77;59.04
6204;BME280;3135;42.602;23.468;2023-07-29T07:45:46;92718.53;;;26.93;57.14
6204;BME280;3135;42.602;23.468;2023-07-29T07:48:11;92718.88;;;27.34;54.60
6204;BME280;3135;42.602;23.468;2023-07-29T07:50:38;92722.72;;;27.51;54.32
6204;BME280;3135;42.602;23.468;2023-07-29T07:53:04;92714.91;;;27.49;53.45
6204;BME280;3135;42.602;23.468;2023-07-29T07:55:29;92726.53;;;27.89;53.29
6204;BME280;3135;42.602;23.468;2023-07-29T07:57:55;92727.72;;;27.85;53.44
6204;BME280;3135;42.602;23.468;2023-07-29T08:00:20;92731.78;;;27.37;54.76
6204;BME280;3135;42.602;23.468;2023-07-29T08:02:46;92721.97;;;27.47;53.20
6204;BME280;3135;42.602;23.468;2023-07-29T08:05:11;92720.72;;;27.73;54.04
6204;BME280;3135;42.602;23.468;2023-07-29T08:07:37;92714.19;;;27.35;52.96
6204;BME280;3135;42.602;23.468;2023-07-29T08:10:02;92709.69;;;27.80;54.18
6204;BME280;3135;42.602;23.468;2023-07-29T08:12:28;92719.38;;;28.69;51.36
6204;BME280;3135;42.602;23.468;2023-07-29T08:14:53;92720.69;;;29.02;48.63
6204;BME280;3135;42.602;23.468;2023-07-29T08:17:19;92728.94;;;29.06;48.30
6204;BME280;3135;42.602;23.468;2023-07-29T08:19:44;92735.53;;;29.12;44.88
6204;BME280;3135;42.602;23.468;2023-07-29T08:22:10;92724.81;;;29.24;47.28
6204;BME280;3135;42.602;23.468;2023-07-29T08:24:35;92734.84;;;29.83;45.06
6204;BME280;3135;42.602;23.468;2023-07-29T08:27:00;92722.03;;;29.96;44.67
6204;BME280;3135;42.602;23.468;2023-07-29T08:29:26;92738.84;;;29.75;45.64
6204;BME280;3135;42.602;23.468;2023-07-29T08:31:52;92744.00;;;30.03;42.55
6204;BME280;3135;42.602;23.468;2023-07-29T08:34:17;92732.31;;;29.92;43.17
6204;BME280;3135;42.602;23.468;2023-07-29T08:36:43;92735.53;;;30.48;41.36
6204;BME280;3135;42.602;23.468;2023-07-29T08:39:08;92740.59;;;30.53;40.47
6204;BME280;3135;42.602;23.468;2023-07-29T08:41:43;92730.13;;;30.41;42.24
6204;BME280;3135;42.602;23.468;2023-07-29T08:44:22;92728.91;;;30.15;41.65
6204;BME280;3135;42.602;23.468;2023-07-29T08:46:49;92713.66;;;29.39;43.77
6204;BME280;3135;42.602;23.468;2023-07-29T08:49:15;92713.59;;;29.08;44.62
6204;BME280;3135;42.602;23.468;2023-07-29T08:51:45;92712.31;;;29.16;43.28
6204;BME280;3135;42.602;23.468;2023-07-29T08:54:12;92705.16;;;28.81;43.09
6204;BME280;3135;42.602;23.468;2023-07-29T08:56:40;92727.72;;;29.48;44.26
6204;BME280;3135;42.602;23.468;2023-07-29T08:59:07;92721.69;;;30.25;43.17
6204;BME280;3135;42.602;23.468;2023-07-29T09:01:33;92715.09;;;30.46;41.09
6204;BME280;3135;42.602;23.468;2023-07-29T09:03:59;92718.69;;;30.70;38.71
6204;BME280;3135;42.602;23.468;2023-07-29T09:06:24;92721.13;;;30.64;38.07
6204;BME280;3135;42.602;23.468;2023-07-29T09:08:54;92721.59;;;31.33;38.28
6204;BME280;3135;42.602;23.468;2023-07-29T09:11:21;92718.25;;;31.85;37.10
6204;BME280;3135;42.602;23.468;2023-07-29T09:13:47;92707.63;;;32.03;36.31
6204;BME280;3135;42.602;23.468;2023-07-29T09:16:13;92707.19;;;31.85;34.89
6204;BME280;3135;42.602;23.468;2023-07-29T09:18:39;92706.84;;;32.03;35.08
6204;BME280;3135;42.602;23.468;2023-07-29T09:21:04;92704.19;;;30.89;38.00
6204;BME280;3135;42.602;23.468;2023-07-29T09:23:43;92696.56;;;31.44;37.68
6204;BME280;3135;42.602;23.468;2023-07-29T09:26:09;92714.84;;;31.77;38.98
6204;BME280;3135;42.602;23.468;2023-07-29T09:28:36;92700.00;;;31.91;35.98
6204;BME280;3135;42.602;23.468;2023-07-29T09:31:03;92704.09;;;31.83;37.43
6204;BME280;3135;42.602;23.468;2023-07-29T09:33:29;92706.63;;;31.74;37.50
6204;BME280;3135;42.602;23.468;2023-07-29T09:35:56;92701.16;;;31.50;36.29
6204;BME280;3135;42.602;23.468;2023-07-29T09:38:28;92700.03;;;31.48;36.05
6204;BME280;3135;42.602;23.468;2023-07-29T09:40:56;92700.53;;;32.02;35.46
6204;BME280;3135;42.602;23.468;2023-07-29T09:43:28;92686.78;;;31.39;38.07
6204;BME280;3135;42.602;23.468;2023-07-29T09:45:54;92684.81;;;31.16;36.71
6204;BME280;3135;42.602;23.468;2023-07-29T09:48:22;92697.72;;;30.99;37.36
6204;BME280;3135;42.602;23.468;2023-07-29T09:50:48;92692.31;;;31.39;37.19
6204;BME280;3135;42.602;23.468;2023-07-29T09:53:14;92690.06;;;31.54;36.92
6204;BME280;3135;42.602;23.468;2023-07-29T09:55:39;92675.03;;;31.12;35.86
6204;BME280;3135;42.602;23.468;2023-07-29T09:58:05;92683.63;;;30.94;38.24
6204;BME280;3135;42.602;23.468;2023-07-29T10:00:33;92671.97;;;31.06;36.88
6204;BME280;3135;42.602;23.468;2023-07-29T10:03:00;92680.06;;;31.17;36.88
6204;BME280;3135;42.602;23.468;2023-07-29T10:05:26;92678.28;;;32.10;35.32
6204;BME280;3135;42.602;23.468;2023-07-29T10:07:53;92680.81;;;32.56;33.92
6204;BME280;3135;42.602;23.468;2023-07-29T10:10:20;92670.81;;;31.90;32.53
6204;BME280;3135;42.602;23.468;2023-07-29T10:12:46;92681.75;;;32.14;32.14
6204;BME280;3135;42.602;23.468;2023-07-29T10:15:12;92675.38;;;32.33;33.32
6204;BME280;3135;42.602;23.468;2023-07-29T10:17:39;92671.63;;;32.43;32.59
6204;BME280;3135;42.602;23.468;2023-07-29T10:20:05;92658.44;;;32.31;33.17
6204;BME280;3135;42.602;23.468;2023-07-29T10:22:44;92674.81;;;32.42;31.75
6204;BME280;3135;42.602;23.468;2023-07-29T10:25:21;92671.47;;;32.99;31.91
6204;BME280;3135;42.602;23.468;2023-07-29T10:27:50;92659.53;;;32.37;31.92
6204;BME280;3135;42.602;23.468;2023-07-29T10:30:17;92658.94;;;31.90;33.48
6204;BME280;3135;42.602;23.468;2023-07-29T10:32:44;92664.97;;;31.85;33.14
6204;BME280;3135;42.602;23.468;2023-07-29T10:35:13;92650.06;;;32.35;33.90
6204;BME280;3135;42.602;23.468;2023-07-29T10:37:39;92642.59;;;32.51;32.49
6204;BME280;3135;42.602;23.468;2023-07-29T10:40:06;92641.31;;;32.20;33.14
6204;BME280;3135;42.602;23.468;2023-07-29T10:42:32;92640.16;;;32.01;32.71
6204;BME280;3135;42.602;23.468;2023-07-29T10:44:58;92645.00;;;32.66;32.62
6204;BME280;3135;42.602;23.468;2023-07-29T10:47:28;92647.66;;;32.37;31.92
6204;BME280;3135;42.602;23.468;2023-07-29T10:49:58;92638.38;;;33.25;32.60
6204;BME280;3135;42.602;23.468;2023-07-29T10:55:02;92631.22;;;33.98;29.59
6204;BME280;3135;42.602;23.468;2023-07-29T10:57:37;92624.56;;;34.21;30.32
6204;BME280;3135;42.602;23.468;2023-07-29T11:00:04;92637.00;;;34.55;27.32
6204;BME280;3135;42.602;23.468;2023-07-29T11:02:36;92637.97;;;33.97;29.64
6204;BME280;3135;42.602;23.468;2023-07-29T11:05:17;92626.22;;;33.35;29.38
6204;BME280;3135;42.602;23.468;2023-07-29T11:07:48;92621.75;;;33.25;31.08
6204;BME280;3135;42.602;23.468;2023-07-29T11:10:14;92622.34;;;32.71;31.60
6204;BME280;3135;42.602;23.468;2023-07-29T11:17:39;92614.91;;;32.68;29.79
6204;BME280;3135;42.602;23.468;2023-07-29T11:20:05;92611.88;;;32.62;30.98
6204;BME280;3135;42.602;23.468;2023-07-29T11:22:32;92614.53;;;32.82;30.48
6204;BME280;3135;42.602;23.468;2023-07-29T11:24:58;92606.50;;;33.33;30.15
6204;BME280;3135;42.602;23.468;2023-07-29T11:27:24;92612.28;;;33.80;29.98
6204;BME280;3135;42.602;23.468;2023-07-29T11:29:49;92610.13;;;33.30;29.55
6204;BME280;3135;42.602;23.468;2023-07-29T11:32:16;92607.84;;;33.70;29.53
6204;BME280;3135;42.602;23.468;2023-07-29T11:34:42;92614.63;;;33.82;28.23
6204;BME280;3135;42.602;23.468;2023-07-29T11:37:11;92607.56;;;32.94;29.63
6204;BME280;3135;42.602;23.468;2023-07-29T11:39:44;92591.03;;;32.90;29.58
6204;BME280;3135;42.602;23.468;2023-07-29T11:42:19;92608.50;;;33.03;30.73
6204;BME280;3135;42.602;23.468;2023-07-29T11:44:45;92606.28;;;32.66;30.24
6204;BME280;3135;42.602;23.468;2023-07-29T11:47:12;92608.84;;;32.40;30.62
6204;BME280;3135;42.602;23.468;2023-07-29T11:49:41;92610.81;;;33.50;29.18
6204;BME280;3135;42.602;23.468;2023-07-29T11:52:10;92592.66;;;33.75;28.07
6204;BME280;3135;42.602;23.468;2023-07-29T11:54:36;92599.16;;;34.61;28.29
6204;BME280;3135;42.602;23.468;2023-07-29T11:57:06;92599.81;;;34.65;29.58
6204;BME280;3135;42.602;23.468;2023-07-29T11:59:33;92601.47;;;35.10;28.17
6204;BME280;3135;42.602;23.468;2023-07-29T12:02:01;92599.00;;;35.25;29.29
6204;BME280;3135;42.602;23.468;2023-07-29T12:04:28;92593.78;;;35.71;27.01
6204;BME280;3135;42.602;23.468;2023-07-29T12:06:55;92583.94;;;36.01;27.26
6204;BME280;3135;42.602;23.468;2023-07-29T12:09:20;92590.44;;;35.85;28.05
6204;BME280;3135;42.602;23.468;2023-07-29T12:11:46;92593.47;;;35.69;27.02
6204;BME280;3135;42.602;23.468;2023-07-29T12:14:12;92581.69;;;35.65;27.35
6204;BME280;3135;42.602;23.468;2023-07-29T12:16:44;92585.94;;;36.00;25.83
6204;BME280;3135;42.602;23.468;2023-07-29T12:19:13;92579.00;;;36.05;26.13
6204;BME280;3135;42.602;23.468;2023-07-29T12:21:41;92569.91;;;36.04;26.08
6204;BME280;3135;42.602;23.468;2023-07-29T12:24:06;92572.72;;;36.23;28.23
6204;BME280;3135;42.602;23.468;2023-07-29T12:26:32;92578.66;;;36.34;26.26
6204;BME280;3135;42.602;23.468;2023-07-29T12:28:58;92571.22;;;36.71;24.47
6204;BME280;3135;42.602;23.468;2023-07-29T12:31:42;92580.41;;;36.99;25.75
6204;BME280;3135;42.602;23.468;2023-07-29T12:34:08;92581.63;;;36.89;24.45
6204;BME280;3135;42.602;23.468;2023-07-29T12:36:45;92573.16;;;36.43;25.06
6204;BME280;3135;42.602;23.468;2023-07-29T12:39:24;92565.44;;;36.16;26.64
6204;BME280;3135;42.602;23.468;2023-07-29T12:41:52;92573.06;;;36.25;25.56
6204;BME280;3135;42.602;23.468;2023-07-29T12:44:18;92571.09;;;35.50;24.77
6204;BME280;3135;42.602;23.468;2023-07-29T12:46:44;92584.66;;;35.26;26.83
6204;BME280;3135;42.602;23.468;2023-07-29T12:49:09;92577.03;;;35.40;26.07
6204;BME280;3135;42.602;23.468;2023-07-29T12:51:35;92569.91;;;35.82;28.91
6204;BME280;3135;42.602;23.468;2023-07-29T12:54:01;92560.63;;;36.07;26.34
6204;BME280;3135;42.602;23.468;2023-07-29T12:56:28;92569.84;;;35.73;26.98
6204;BME280;3135;42.602;23.468;2023-07-29T12:58:54;92559.09;;;35.53;26.66
6204;BME280;3135;42.602;23.468;2023-07-29T13:01:19;92564.09;;;35.02;25.73
6204;BME280;3135;42.602;23.468;2023-07-29T13:03:45;92561.91;;;34.84;26.07
6204;BME280;3135;42.602;23.468;2023-07-29T13:06:11;92577.13;;;34.67;26.17
6204;BME280;3135;42.602;23.468;2023-07-29T13:08:36;92571.41;;;34.96;25.59
6204;BME280;3135;42.602;23.468;2023-07-29T13:11:02;92579.75;;;34.96;24.91
6204;BME280;3135;42.602;23.468;2023-07-29T13:13:28;92563.09;;;34.23;26.18
6204;BME280;3135;42.602;23.468;2023-07-29T13:15:54;92576.16;;;34.73;26.76
6204;BME280;3135;42.602;23.468;2023-07-29T13:18:20;92579.09;;;34.92;26.78
6204;BME280;3135;42.602;23.468;2023-07-29T13:20:46;92580.28;;;35.03;25.99
6204;BME280;3135;42.602;23.468;2023-07-29T13:23:11;92581.75;;;35.30;25.56
6204;BME280;3135;42.602;23.468;2023-07-29T13:25:36;92586.16;;;34.32;25.54